createdAt,value
2018-01-16T00:00:40.636Z,10.3
2018-01-16T00:01:40.887Z,10.02
2018-01-16T00:02:40.597Z,9.74
2018-01-16T00:03:40.850Z,9.83
2018-01-16T00:04:40.562Z,9.83
2018-01-16T00:05:40.887Z,9.74
2018-01-16T00:06:40.524Z,9.55
2018-01-16T00:07:40.509Z,9.36
2018-01-16T00:08:40.492Z,8.89
2018-01-16T00:09:40.468Z,9.08
2018-01-16T00:10:40.452Z,8.89
2018-01-16T00:11:40.434Z,9.17
2018-01-16T00:12:40.414Z,8.79
2018-01-16T00:13:40.396Z,8.41
2018-01-16T00:14:40.377Z,8.51
2018-01-16T00:15:40.630Z,7.94
2018-01-16T00:16:40.339Z,7.75
2018-01-16T00:17:40.742Z,7.56
2018-01-16T00:18:40.431Z,7.37
2018-01-16T00:19:40.285Z,6.81
2018-01-16T00:20:40.557Z,6.9
2018-01-16T00:21:40.518Z,6.33
2018-01-16T00:22:40.235Z,6.62
2018-01-16T00:23:40.213Z,6.05
2018-01-16T00:24:40.194Z,5.96
2018-01-16T00:25:40.176Z,5.77
2018-01-16T00:26:40.159Z,5.48
2018-01-16T00:27:40.166Z,5.67
2018-01-16T00:28:40.122Z,5.58
2018-01-16T00:29:40.103Z,5.67
2018-01-16T00:30:40.355Z,5.48
2018-01-16T00:31:40.339Z,5.01
2018-01-16T00:32:40.048Z,4.91
2018-01-16T00:33:40.030Z,5.01
2018-01-16T00:34:40.029Z,4.72
2018-01-16T00:35:40.264Z,4.63
2018-01-16T00:36:39.976Z,4.44
2018-01-16T00:37:39.957Z,4.53
2018-01-16T00:38:40.213Z,4.72
2018-01-16T00:39:39.921Z,5.01
2018-01-16T00:40:40.000Z,4.91
2018-01-16T00:41:40.074Z,5.2
2018-01-16T00:42:40.027Z,5.48
2018-01-16T00:43:40.305Z,5.67
2018-01-16T00:44:39.830Z,5.77
2018-01-16T00:45:40.082Z,5.96
2018-01-16T00:46:40.068Z,5.87
2018-01-16T00:47:39.774Z,6.62
2018-01-16T00:48:40.031Z,6.9
2018-01-16T00:49:39.739Z,7.38
2018-01-16T00:50:39.722Z,7.95
2018-01-16T00:51:39.973Z,8.33
2018-01-16T00:52:39.955Z,8.33
2018-01-16T00:53:39.666Z,8.51
2018-01-16T00:54:39.919Z,8.7
2018-01-16T00:55:39.645Z,8.61
2018-01-16T00:56:39.612Z,8.42
2018-01-16T00:57:39.865Z,8.61
2018-01-16T00:58:39.848Z,8.89
2018-01-16T00:59:39.567Z,9.17
2018-01-16T01:00:39.538Z,9.17
2018-01-16T01:01:39.633Z,9.17
2018-01-16T01:02:39.558Z,9.36
2018-01-16T01:03:39.598Z,9.46
2018-01-16T01:04:39.596Z,9.36
2018-01-16T01:05:39.590Z,8.98
2018-01-16T01:06:39.565Z,8.51
2018-01-16T01:07:39.541Z,8.7
2018-01-16T01:08:40.251Z,9.08
2018-01-16T01:09:39.558Z,8.7
2018-01-16T01:10:39.359Z,8.8
2018-01-16T01:11:39.340Z,8.61
2018-01-16T01:12:39.605Z,8.98
2018-01-16T01:13:39.344Z,8.98
2018-01-16T01:14:39.445Z,9.27
2018-01-16T01:15:39.441Z,9.84
2018-01-16T01:16:39.718Z,10.03
2018-01-16T01:17:39.750Z,10.31
2018-01-16T01:18:39.755Z,10.78
2018-01-16T01:19:39.268Z,11.16
2018-01-16T01:20:39.180Z,11.54
2018-01-16T01:21:39.162Z,12.2
2018-01-16T01:22:39.148Z,12.77
2018-01-16T01:23:39.127Z,12.49
2018-01-16T01:24:39.420Z,12.49
2018-01-16T01:25:39.220Z,12.3
2018-01-16T01:26:39.426Z,11.73
2018-01-16T01:27:39.161Z,11.82
2018-01-16T01:28:39.166Z,11.07
2018-01-16T01:29:39.111Z,10.97
2018-01-16T01:30:38.999Z,11.82
2018-01-16T01:31:39.254Z,12.11
2018-01-16T01:32:38.991Z,12.58
2018-01-16T01:33:38.951Z,13.06
2018-01-16T01:34:38.925Z,14.09
2018-01-16T01:35:38.909Z,14.95
2018-01-16T01:36:38.892Z,15.14
2018-01-16T01:37:39.144Z,15.04
2018-01-16T01:38:39.001Z,14.47
2018-01-16T01:39:38.995Z,14.47
2018-01-16T01:40:38.968Z,13.43
2018-01-16T01:41:39.391Z,13.34
2018-01-16T01:42:38.804Z,12.87
2018-01-16T01:43:38.766Z,12.58
2018-01-16T01:44:38.748Z,12.39
2018-01-16T01:45:39.103Z,12.01
2018-01-16T01:46:38.869Z,12.2
2018-01-16T01:47:38.965Z,12.39
2018-01-16T01:48:38.953Z,12.58
2018-01-16T01:49:38.665Z,12.58
2018-01-16T01:50:38.962Z,12.58
2018-01-16T01:51:38.776Z,12.39
2018-01-16T01:52:38.727Z,12.39
2018-01-16T01:53:38.732Z,12.11
2018-01-16T01:54:38.841Z,12.11
2018-01-16T01:55:38.551Z,12.3
2018-01-16T01:56:38.551Z,12.96
2018-01-16T01:57:38.786Z,13.43
2018-01-16T01:58:38.516Z,13.9
2018-01-16T01:59:38.809Z,14
2018-01-16T02:00:38.913Z,14.47
2018-01-16T02:01:38.715Z,14.47
2018-01-16T02:02:38.612Z,14.66
2018-01-16T02:03:38.680Z,14.38
2018-01-16T02:04:38.658Z,14.09
2018-01-16T02:05:38.373Z,14.09
2018-01-16T02:06:38.398Z,14.28
2018-01-16T02:07:38.509Z,14.28
2018-01-16T02:08:38.760Z,14.19
2018-01-16T02:09:38.451Z,13.9
2018-01-16T02:10:38.284Z,13.62
2018-01-16T02:11:38.268Z,13.24
2018-01-16T02:12:38.249Z,13.15
2018-01-16T02:13:38.229Z,12.68
2018-01-16T02:14:38.210Z,12.39
2018-01-16T02:15:38.389Z,12.58
2018-01-16T02:16:38.174Z,12.68
2018-01-16T02:17:38.530Z,12.49
2018-01-16T02:18:38.231Z,12.58
2018-01-16T02:19:38.309Z,12.68
2018-01-16T02:20:38.191Z,12.68
2018-01-16T02:21:38.358Z,12.49
2018-01-16T02:22:38.078Z,12.49
2018-01-16T02:23:38.051Z,12.77
2018-01-16T02:24:38.453Z,12.68
2018-01-16T02:25:38.142Z,12.96
2018-01-16T02:26:38.476Z,13.24
2018-01-16T02:27:37.980Z,13.81
2018-01-16T02:28:38.243Z,13.9
2018-01-16T02:29:37.960Z,14
2018-01-16T02:30:37.934Z,13.9
2018-01-16T02:31:37.909Z,13.9
2018-01-16T02:32:37.888Z,13.81
2018-01-16T02:33:37.871Z,14
2018-01-16T02:34:37.859Z,13.34
2018-01-16T02:35:37.841Z,13.15
2018-01-16T02:36:37.821Z,13.24
2018-01-16T02:37:37.799Z,13.43
2018-01-16T02:38:37.783Z,13.9
2018-01-16T02:39:37.764Z,13.9
2018-01-16T02:40:38.023Z,13.81
2018-01-16T02:41:37.730Z,13.9
2018-01-16T02:42:37.983Z,14.19
2018-01-16T02:43:38.001Z,14.38
2018-01-16T02:44:38.003Z,13.81
2018-01-16T02:45:37.932Z,13.71
2018-01-16T02:46:37.917Z,13.15
2018-01-16T02:47:37.893Z,13.15
2018-01-16T02:48:37.605Z,12.68
2018-01-16T02:49:37.594Z,12.11
2018-01-16T02:50:37.576Z,11.82
2018-01-16T02:51:37.553Z,11.63
2018-01-16T02:52:37.535Z,11.73
2018-01-16T02:53:37.516Z,11.35
2018-01-16T02:54:37.501Z,11.07
2018-01-16T02:55:37.480Z,10.97
2018-01-16T02:56:37.480Z,10.97
2018-01-16T02:57:37.452Z,10.41
2018-01-16T02:58:37.427Z,10.03
2018-01-16T02:59:37.409Z,10.03
2018-01-16T03:00:37.393Z,9.93
2018-01-16T03:01:37.392Z,9.74
2018-01-16T03:02:37.628Z,9.93
2018-01-16T03:03:37.609Z,9.46
2018-01-16T03:04:37.591Z,9.17
2018-01-16T03:05:37.304Z,9.36
2018-01-16T03:06:37.553Z,9.55
2018-01-16T03:07:37.270Z,9.46
2018-01-16T03:08:37.251Z,9.46
2018-01-16T03:09:37.504Z,9.93
2018-01-16T03:10:37.214Z,10.03
2018-01-16T03:11:37.198Z,9.93
2018-01-16T03:12:37.182Z,10.12
2018-01-16T03:13:37.158Z,9.74
2018-01-16T03:14:37.143Z,10.12
2018-01-16T03:15:37.400Z,9.84
2018-01-16T03:16:37.384Z,9.65
2018-01-16T03:17:37.360Z,9.27
2018-01-16T03:18:37.085Z,9.17
2018-01-16T03:19:37.060Z,9.27
2018-01-16T03:20:37.036Z,9.08
2018-01-16T03:21:37.021Z,8.89
2018-01-16T03:22:37.000Z,8.8
2018-01-16T03:23:37.269Z,8.7
2018-01-16T03:24:37.236Z,8.61
2018-01-16T03:25:36.950Z,8.61
2018-01-16T03:26:36.931Z,8.33
2018-01-16T03:27:36.915Z,8.33
2018-01-16T03:28:37.168Z,8.42
2018-01-16T03:29:37.168Z,8.04
2018-01-16T03:30:36.863Z,8.51
2018-01-16T03:31:37.129Z,8.33
2018-01-16T03:32:36.824Z,8.23
2018-01-16T03:33:37.099Z,8.33
2018-01-16T03:34:36.792Z,8.33
2018-01-16T03:35:36.772Z,8.14
2018-01-16T03:36:36.756Z,7.85
2018-01-16T03:37:36.739Z,8.04
2018-01-16T03:38:36.735Z,8.04
2018-01-16T03:39:36.705Z,7.66
2018-01-16T03:40:36.966Z,7.76
2018-01-16T03:41:36.668Z,7.38
2018-01-16T03:42:36.653Z,7.19
2018-01-16T03:43:36.902Z,7
2018-01-16T03:44:36.910Z,6.71
2018-01-16T03:45:36.868Z,6.71
2018-01-16T03:46:36.870Z,6.52
2018-01-16T03:47:36.561Z,6.62
2018-01-16T03:48:36.816Z,5.96
2018-01-16T03:49:36.525Z,5.87
2018-01-16T03:50:36.509Z,6.05
2018-01-16T03:51:36.763Z,5.96
2018-01-16T03:52:36.747Z,5.96
2018-01-16T03:53:36.482Z,5.68
2018-01-16T03:54:36.440Z,5.68
2018-01-16T03:55:36.433Z,5.58
2018-01-16T03:56:36.684Z,6.24
2018-01-16T03:57:36.387Z,6.62
2018-01-16T03:58:36.371Z,6.52
2018-01-16T03:59:36.626Z,7
2018-01-16T04:00:36.336Z,7.57
2018-01-16T04:01:36.591Z,7.76
2018-01-16T04:02:36.302Z,7.67
2018-01-16T04:03:36.288Z,7.66
2018-01-16T04:04:36.536Z,7.95
2018-01-16T04:05:36.248Z,8.04
2018-01-16T04:06:36.234Z,7.95
2018-01-16T04:07:36.217Z,8.23
2018-01-16T04:08:36.467Z,8.42
2018-01-16T04:09:36.181Z,9.17
2018-01-16T04:10:36.436Z,9.56
2018-01-16T04:11:36.148Z,9.75
2018-01-16T04:12:36.128Z,10.41
2018-01-16T04:13:36.130Z,10.31
2018-01-16T04:14:36.102Z,10.41
2018-01-16T04:15:36.076Z,10.78
2018-01-16T04:16:36.059Z,11.64
2018-01-16T04:17:36.066Z,12.4
2018-01-16T04:18:36.026Z,12.59
2018-01-16T04:19:36.276Z,13.06
2018-01-16T04:20:35.988Z,13.82
2018-01-16T04:21:35.975Z,14.1
2018-01-16T04:22:36.228Z,14.1
2018-01-16T04:23:35.953Z,13.72
2018-01-16T04:24:35.920Z,13.82
2018-01-16T04:25:35.904Z,13.72
2018-01-16T04:26:36.165Z,13.53
2018-01-16T04:27:36.139Z,13.15
2018-01-16T04:28:35.853Z,13.53
2018-01-16T04:29:35.845Z,13.44
2018-01-16T04:30:35.818Z,13.82
2018-01-16T04:31:35.800Z,13.44
2018-01-16T04:32:35.784Z,13.06
2018-01-16T04:33:35.770Z,12.59
2018-01-16T04:34:36.019Z,12.12
2018-01-16T04:35:35.732Z,12.02
2018-01-16T04:36:35.728Z,11.26
2018-01-16T04:37:35.696Z,10.97
2018-01-16T04:38:35.678Z,10.88
2018-01-16T04:39:35.938Z,11.45
2018-01-16T04:40:35.646Z,11.54
2018-01-16T04:41:35.630Z,11.64
2018-01-16T04:42:35.885Z,11.54
2018-01-16T04:43:35.595Z,11.92
2018-01-16T04:44:35.579Z,11.92
2018-01-16T04:45:35.835Z,12.02
2018-01-16T04:46:35.542Z,12.68
2018-01-16T04:47:35.529Z,12.49
2018-01-16T04:48:35.779Z,12.21
2018-01-16T04:49:35.491Z,11.83
2018-01-16T04:50:35.490Z,11.45
2018-01-16T04:51:35.728Z,10.69
2018-01-16T04:52:35.440Z,10.22
2018-01-16T04:53:35.422Z,9.75
2018-01-16T04:54:35.407Z,9.46
2018-01-16T04:55:35.388Z,9.94
2018-01-16T04:56:35.373Z,9.94
2018-01-16T04:57:35.373Z,9.75
2018-01-16T04:58:35.337Z,9.94
2018-01-16T04:59:35.323Z,10.13
2018-01-16T05:00:35.302Z,10.22
2018-01-16T05:01:35.295Z,10.13
2018-01-16T05:02:35.269Z,10.13
2018-01-16T05:03:35.270Z,9.94
2018-01-16T05:04:35.237Z,9.75
2018-01-16T05:05:35.488Z,10.13
2018-01-16T05:06:35.473Z,9.75
2018-01-16T05:07:35.455Z,9.94
2018-01-16T05:08:35.165Z,9.27
2018-01-16T05:09:35.473Z,9.46
2018-01-16T05:10:35.145Z,9.18
2018-01-16T05:11:35.114Z,9.27
2018-01-16T05:12:35.098Z,9.27
2018-01-16T05:13:35.082Z,8.7
2018-01-16T05:14:35.333Z,8.23
2018-01-16T05:15:35.046Z,7.76
2018-01-16T05:16:35.030Z,7.1
2018-01-16T05:17:35.012Z,7.1
2018-01-16T05:18:35.276Z,6.53
2018-01-16T05:19:35.019Z,6.15
2018-01-16T05:20:34.972Z,5.77
2018-01-16T05:21:35.216Z,5.68
2018-01-16T05:22:35.196Z,5.3
2018-01-16T05:23:34.912Z,5.2
2018-01-16T05:24:34.895Z,4.63
2018-01-16T05:25:34.884Z,4.63
2018-01-16T05:26:34.858Z,4.25
2018-01-16T05:27:35.112Z,4.25
2018-01-16T05:28:35.095Z,4.25
2018-01-16T05:29:34.821Z,4.63
2018-01-16T05:30:34.816Z,4.35
2018-01-16T05:31:35.054Z,4.25
2018-01-16T05:32:35.029Z,4.16
2018-01-16T05:33:34.742Z,4.35
2018-01-16T05:34:35.014Z,4.25
2018-01-16T05:35:34.974Z,4.25
2018-01-16T05:36:34.975Z,4.25
2018-01-16T05:37:34.960Z,4.35
2018-01-16T05:38:34.658Z,4.54
2018-01-16T05:39:34.638Z,4.54
2018-01-16T05:40:34.622Z,5.01
2018-01-16T05:41:34.608Z,5.87
2018-01-16T05:42:34.586Z,6.53
2018-01-16T05:43:34.570Z,7
2018-01-16T05:44:34.557Z,7.86
2018-01-16T05:45:34.805Z,8.71
2018-01-16T05:46:34.790Z,9.18
2018-01-16T05:47:34.515Z,9.75
2018-01-16T05:48:34.756Z,10.32
2018-01-16T05:49:34.741Z,11.16
2018-01-16T05:50:34.465Z,11.93
2018-01-16T05:51:34.707Z,12.5
2018-01-16T05:52:34.733Z,12.97
2018-01-16T05:53:34.687Z,13.54
2018-01-16T05:54:34.653Z,14.11
2018-01-16T05:55:34.366Z,14.01
2018-01-16T05:56:34.371Z,15.25
2018-01-16T05:57:34.606Z,15.63
2018-01-16T05:58:34.319Z,15.81
2018-01-16T05:59:34.302Z,15.81
2018-01-16T06:00:34.577Z,16.19
2018-01-16T06:01:34.536Z,16.38
2018-01-16T06:02:34.251Z,16.19
2018-01-16T06:03:34.233Z,16.38
2018-01-16T06:04:34.507Z,16.38
2018-01-16T06:05:34.216Z,15.91
2018-01-16T06:06:34.459Z,15.91
2018-01-16T06:07:34.169Z,16
2018-01-16T06:08:34.151Z,16.47
2018-01-16T06:09:34.133Z,15.63
2018-01-16T06:10:34.117Z,16
2018-01-16T06:11:34.102Z,16.47
2018-01-16T06:12:34.085Z,16.85
2018-01-16T06:13:34.069Z,16.76
2018-01-16T06:14:34.273Z,16.95
2018-01-16T06:15:34.036Z,17.14
2018-01-16T06:16:34.287Z,17.8
2018-01-16T06:17:34.001Z,17.99
2018-01-16T06:18:33.991Z,17.8
2018-01-16T06:19:33.982Z,18.37
2018-01-16T06:20:33.950Z,18.56
2018-01-16T06:21:33.933Z,18.08
2018-01-16T06:22:34.193Z,17.41
2018-01-16T06:23:33.914Z,17.14
2018-01-16T06:24:33.884Z,16.95
2018-01-16T06:25:33.870Z,17.04
2018-01-16T06:26:33.862Z,16.95
2018-01-16T06:27:34.111Z,16.95
2018-01-16T06:28:33.820Z,16.76
2018-01-16T06:29:34.075Z,17.14
2018-01-16T06:30:34.075Z,16.95
2018-01-16T06:31:34.055Z,17.04
2018-01-16T06:32:33.759Z,16.66
2018-01-16T06:33:33.738Z,16.47
2018-01-16T06:34:33.990Z,16.94
2018-01-16T06:35:33.983Z,17.03
2018-01-16T06:36:33.687Z,17.14
2018-01-16T06:37:33.941Z,16.85
2018-01-16T06:38:33.655Z,16.66
2018-01-16T06:39:34.112Z,16.28
2018-01-16T06:40:33.620Z,16.28
2018-01-16T06:41:33.604Z,16.09
2018-01-16T06:42:33.587Z,15.61
2018-01-16T06:43:33.571Z,15.52
2018-01-16T06:44:33.555Z,15.05
2018-01-16T06:45:33.541Z,14.76
2018-01-16T06:46:33.793Z,14.01
2018-01-16T06:47:33.506Z,13.63
2018-01-16T06:48:33.488Z,13.25
2018-01-16T06:49:33.471Z,12.96
2018-01-16T06:50:33.462Z,12.77
2018-01-16T06:51:33.708Z,12.02
2018-01-16T06:52:33.691Z,12.02
2018-01-16T06:53:33.682Z,11.45
2018-01-16T06:54:33.388Z,10.69
2018-01-16T06:55:33.369Z,10.22
2018-01-16T06:56:33.354Z,10.31
2018-01-16T06:57:33.638Z,9.94
2018-01-16T06:58:33.593Z,8.61
2018-01-16T06:59:33.305Z,7.67
2018-01-16T07:00:33.286Z,7
2018-01-16T07:01:33.281Z,6.43
2018-01-16T07:02:33.255Z,5.58
2018-01-16T07:03:33.239Z,5.39
2018-01-16T07:04:33.220Z,5.3
2018-01-16T07:05:33.478Z,5.39
2018-01-16T07:06:33.187Z,5.58
2018-01-16T07:07:33.170Z,5.87
2018-01-16T07:08:33.157Z,5.77
2018-01-16T07:09:33.406Z,6.15
2018-01-16T07:10:33.122Z,6.53
2018-01-16T07:11:33.125Z,6.72
2018-01-16T07:12:33.088Z,7.1
2018-01-16T07:13:33.068Z,6.91
2018-01-16T07:14:33.052Z,7.38
2018-01-16T07:15:33.038Z,7.57
2018-01-16T07:16:33.313Z,8.71
2018-01-16T07:17:33.004Z,9.19
2018-01-16T07:18:33.009Z,9.18
2018-01-16T07:19:32.971Z,10.41
2018-01-16T07:20:32.954Z,11.45
2018-01-16T07:21:33.208Z,12.21
2018-01-16T07:22:33.209Z,13.15
2018-01-16T07:23:32.905Z,13.06
2018-01-16T07:24:32.887Z,13.25
2018-01-16T07:25:33.142Z,13.26
2018-01-16T07:26:32.859Z,12.96
2018-01-16T07:27:33.118Z,13.15
2018-01-16T07:28:32.822Z,13.34
2018-01-16T07:29:32.805Z,13.34
2018-01-16T07:30:33.058Z,13.45
2018-01-16T07:31:32.771Z,13.34
2018-01-16T07:32:33.025Z,13.53
2018-01-16T07:33:33.012Z,13.53
2018-01-16T07:34:32.723Z,13.44
2018-01-16T07:35:32.709Z,13.73
2018-01-16T07:36:32.688Z,14.1
2018-01-16T07:37:32.674Z,13.72
2018-01-16T07:38:32.658Z,13.91
2018-01-16T07:39:32.638Z,13.91
2018-01-16T07:40:32.638Z,14.01
2018-01-16T07:41:32.607Z,14.1
2018-01-16T07:42:32.590Z,14.2
2018-01-16T07:43:32.847Z,14.58
2018-01-16T07:44:32.554Z,14.2
2018-01-16T07:45:32.837Z,13.72
2018-01-16T07:46:32.546Z,13.91
2018-01-16T07:47:32.920Z,13.34
2018-01-16T07:48:32.492Z,13.35
2018-01-16T07:49:32.491Z,13.45
2018-01-16T07:50:32.743Z,13.34
2018-01-16T07:51:32.440Z,13.07
2018-01-16T07:52:32.452Z,12.69
2018-01-16T07:53:32.550Z,12.68
2018-01-16T07:54:32.448Z,12.59
2018-01-16T07:55:32.378Z,13.54
2018-01-16T07:56:32.637Z,14.58
2018-01-16T07:57:32.340Z,14.96
2018-01-16T07:58:32.328Z,15.44
2018-01-16T07:59:32.307Z,15.34
2018-01-16T08:00:32.291Z,15.44
2018-01-16T08:01:32.559Z,15.44
2018-01-16T08:02:32.535Z,15.53
2018-01-16T08:03:32.264Z,16.38
2018-01-16T08:04:32.230Z,16.19
2018-01-16T08:05:32.209Z,16.66
2018-01-16T08:06:32.462Z,16.19
2018-01-16T08:07:32.449Z,15.91
2018-01-16T08:08:32.432Z,15.72
2018-01-16T08:09:32.143Z,15.05
2018-01-16T08:10:32.136Z,14.86
2018-01-16T08:11:32.382Z,14.48
2018-01-16T08:12:32.115Z,14.01
2018-01-16T08:13:32.348Z,13.64
2018-01-16T08:14:32.065Z,13.16
2018-01-16T08:15:32.336Z,13.16
2018-01-16T08:16:32.334Z,13.16
2018-01-16T08:17:32.011Z,13.07
2018-01-16T08:18:32.026Z,13.16
2018-01-16T08:19:32.248Z,13.07
2018-01-16T08:20:31.962Z,13.35
2018-01-16T08:21:32.218Z,13.35
2018-01-16T08:22:31.934Z,13.45
2018-01-16T08:23:32.191Z,13.54
2018-01-16T08:24:31.899Z,13.45
2018-01-16T08:25:31.883Z,13.35
2018-01-16T08:26:32.156Z,13.64
2018-01-16T08:27:31.850Z,13.54
2018-01-16T08:28:31.884Z,14.01
2018-01-16T08:29:31.820Z,14.2
2018-01-16T08:30:31.805Z,14.39
2018-01-16T08:31:32.057Z,14.96
2018-01-16T08:32:32.042Z,15.53
2018-01-16T08:33:31.755Z,16.28
2018-01-16T08:34:31.737Z,16.47
2018-01-16T08:35:31.757Z,16.76
2018-01-16T08:36:31.877Z,16.95
2018-01-16T08:37:32.125Z,16.57
2018-01-16T08:38:31.673Z,16.47
2018-01-16T08:39:31.655Z,16
2018-01-16T08:40:31.706Z,15.81
2018-01-16T08:41:31.634Z,15.81
2018-01-16T08:42:31.612Z,15.72
2018-01-16T08:43:31.865Z,15.44
2018-01-16T08:44:31.852Z,15.44
2018-01-16T08:45:31.558Z,15.44
2018-01-16T08:46:31.814Z,15.34
2018-01-16T08:47:31.526Z,14.96
2018-01-16T08:48:31.511Z,15.25
2018-01-16T08:49:31.493Z,15.63
2018-01-16T08:50:31.479Z,15.72
2018-01-16T08:51:31.463Z,16.66
2018-01-16T08:52:31.447Z,16.47
2018-01-16T08:53:31.709Z,16.38
2018-01-16T08:54:31.690Z,16.38
2018-01-16T08:55:31.397Z,16.47
2018-01-16T08:56:31.663Z,16.95
2018-01-16T08:57:31.364Z,16.95
2018-01-16T08:58:31.620Z,17.23
2018-01-16T08:59:31.333Z,17.99
2018-01-16T09:00:31.313Z,17.79
2018-01-16T09:01:31.298Z,17.79
2018-01-16T09:02:31.282Z,17.32
2018-01-16T09:03:31.285Z,18.07
2018-01-16T09:04:31.253Z,18.27
2018-01-16T09:05:31.506Z,18.07
2018-01-16T09:06:31.217Z,17.79
2018-01-16T09:07:31.201Z,17.98
2018-01-16T09:08:31.186Z,17.03
2018-01-16T09:09:31.169Z,16.37
2018-01-16T09:10:31.432Z,15.8
2018-01-16T09:11:31.406Z,15.9
2018-01-16T09:12:31.203Z,15.33
2018-01-16T09:13:31.197Z,15.52
2018-01-16T09:14:31.182Z,15.42
2018-01-16T09:15:31.471Z,14.86
2018-01-16T09:16:31.150Z,15.23
2018-01-16T09:17:31.308Z,14.95
2018-01-16T09:18:31.019Z,14.29
2018-01-16T09:19:31.206Z,13.91
2018-01-16T09:20:30.987Z,13.34
2018-01-16T09:21:31.245Z,13.82
2018-01-16T09:22:31.226Z,14.2
2018-01-16T09:23:30.938Z,14.2
2018-01-16T09:24:30.921Z,14.95
2018-01-16T09:25:30.922Z,14.76
2018-01-16T09:26:30.885Z,15.61
2018-01-16T09:27:30.870Z,15.8
2018-01-16T09:28:31.227Z,16.47
2018-01-16T09:29:31.108Z,17.32
2018-01-16T09:30:30.823Z,16.75
2018-01-16T09:31:30.805Z,16.94
2018-01-16T09:32:30.787Z,17.03
2018-01-16T09:33:31.043Z,17.03
2018-01-16T09:34:30.754Z,17.03
2018-01-16T09:35:30.739Z,16.85
2018-01-16T09:36:30.725Z,16.85
2018-01-16T09:37:30.704Z,17.03
2018-01-16T09:38:30.694Z,17.98
2018-01-16T09:39:30.672Z,18.93
2018-01-16T09:40:30.655Z,19.4
2018-01-16T09:41:30.927Z,20.06
2018-01-16T09:42:30.623Z,21.01
2018-01-16T09:43:30.886Z,21.95
2018-01-16T09:44:30.588Z,22.62
2018-01-16T09:45:30.570Z,22.62
2018-01-16T09:46:30.569Z,22.52
2018-01-16T09:47:30.816Z,21.95
2018-01-16T09:48:30.793Z,21.57
2018-01-16T09:49:30.789Z,21.3
2018-01-16T09:50:30.778Z,20.92
2018-01-16T09:51:30.742Z,20.82
2018-01-16T09:52:30.723Z,21.67
2018-01-16T09:53:30.439Z,21.77
2018-01-16T09:54:30.455Z,22.33
2018-01-16T09:55:30.401Z,21.67
2018-01-16T09:56:30.385Z,21.3
2018-01-16T09:57:30.716Z,20.63
2018-01-16T09:58:30.351Z,20.44
2018-01-16T09:59:30.336Z,20.25
2018-01-16T10:00:30.320Z,20.06
2018-01-16T10:01:30.307Z,21.11
2018-01-16T10:02:30.562Z,22.05
2018-01-16T10:03:30.543Z,22.81
2018-01-16T10:04:30.252Z,22.81
2018-01-16T10:05:30.236Z,22.14
2018-01-16T10:06:30.218Z,22.72
2018-01-16T10:07:30.475Z,23.77
2018-01-16T10:08:30.481Z,24.33
2018-01-16T10:09:30.452Z,24.52
2018-01-16T10:10:30.154Z,26.32
2018-01-16T10:11:30.136Z,28.69
2018-01-16T10:12:30.122Z,30.21
2018-01-16T10:13:30.376Z,30.13
2018-01-16T10:14:30.088Z,32.87
2018-01-16T10:15:30.075Z,37.23
2018-01-16T10:16:30.067Z,43.3
2018-01-16T10:17:30.313Z,44.91
2018-01-16T10:18:30.023Z,47.85
2018-01-16T10:19:30.009Z,47.85
2018-01-16T10:20:30.020Z,47.09
2018-01-16T10:21:29.975Z,46.52
2018-01-16T10:22:29.961Z,48.32
2018-01-16T10:23:29.995Z,48.98
2018-01-16T10:24:30.203Z,49.74
2018-01-16T10:25:30.187Z,49.46
2018-01-16T10:26:30.182Z,47.85
2018-01-16T10:27:29.884Z,49.74
2018-01-16T10:28:29.865Z,49.46
2018-01-16T10:29:30.135Z,48.22
2018-01-16T10:30:29.834Z,46.9
2018-01-16T10:31:30.088Z,47.18
2018-01-16T10:32:29.804Z,46.71
2018-01-16T10:33:29.787Z,47.09
2018-01-16T10:34:29.771Z,47.56
2018-01-16T10:35:29.755Z,47.37
2018-01-16T10:36:30.017Z,47.75
2018-01-16T10:37:29.727Z,47.47
2018-01-16T10:38:29.709Z,46.71
2018-01-16T10:39:29.696Z,48.13
2018-01-16T10:40:29.678Z,49.65
2018-01-16T10:41:29.939Z,47.37
2018-01-16T10:42:29.648Z,47.47
2018-01-16T10:43:29.650Z,45.67
2018-01-16T10:44:29.618Z,44.06
2018-01-16T10:45:29.927Z,42.92
2018-01-16T10:46:29.905Z,40.45
2018-01-16T10:47:29.845Z,39.22
2018-01-16T10:48:29.557Z,40.17
2018-01-16T10:49:29.816Z,40.74
2018-01-16T10:50:29.551Z,40.17
2018-01-16T10:51:29.513Z,39.22
2018-01-16T10:52:29.496Z,38.18
2018-01-16T10:53:29.800Z,35.62
2018-01-16T10:54:29.466Z,33.73
2018-01-16T10:55:29.720Z,34.11
2018-01-16T10:56:29.454Z,36.76
2018-01-16T10:57:29.420Z,35.91
2018-01-16T10:58:29.423Z,35.62
2018-01-16T10:59:29.391Z,37.04
2018-01-16T11:00:29.647Z,39.98
2018-01-16T11:01:29.356Z,41.02
2018-01-16T11:02:29.614Z,40.64
2018-01-16T11:03:29.327Z,39.03
2018-01-16T11:04:29.312Z,39.41
2018-01-16T11:05:29.303Z,39.32
2018-01-16T11:06:29.283Z,39.51
2018-01-16T11:07:29.554Z,38.65
2018-01-16T11:08:29.250Z,38.28
2018-01-16T11:09:29.234Z,36.85
2018-01-16T11:10:29.499Z,35.15
2018-01-16T11:11:29.204Z,34.77
2018-01-16T11:12:29.461Z,34.11
2018-01-16T11:13:29.175Z,35.43
2018-01-16T11:14:29.161Z,37.04
2018-01-16T11:15:29.145Z,36.95
2018-01-16T11:16:29.127Z,38.28
2018-01-16T11:17:29.116Z,37.8
2018-01-16T11:18:29.367Z,38.84
2018-01-16T11:19:29.085Z,38.65
2018-01-16T11:20:29.067Z,38.28
2018-01-16T11:21:29.330Z,37.61
2018-01-16T11:22:29.066Z,37.14
2018-01-16T11:23:29.312Z,37.61
2018-01-16T11:24:29.278Z,36.47
2018-01-16T11:25:28.989Z,35.62
2018-01-16T11:26:28.990Z,34.96
2018-01-16T11:27:28.959Z,34.11
2018-01-16T11:28:29.036Z,34.01
2018-01-16T11:29:29.483Z,32.87
2018-01-16T11:30:29.124Z,31.64
2018-01-16T11:31:29.227Z,31.64
2018-01-16T11:32:28.882Z,31.07
2018-01-16T11:33:29.169Z,32.02
2018-01-16T11:34:29.025Z,32.59
2018-01-16T11:35:29.314Z,31.74
2018-01-16T11:36:28.822Z,31.36
2018-01-16T11:37:28.814Z,31.07
2018-01-16T11:38:28.788Z,30.69
2018-01-16T11:39:29.044Z,31.07
2018-01-16T11:40:28.850Z,30.88
2018-01-16T11:41:28.760Z,30.13
2018-01-16T11:42:28.727Z,30.03
2018-01-16T11:43:28.714Z,29.37
2018-01-16T11:44:28.694Z,28.52
2018-01-16T11:45:28.699Z,28.14
2018-01-16T11:46:28.936Z,28.42
2018-01-16T11:47:28.920Z,27.95
2018-01-16T11:48:28.633Z,27.09
2018-01-16T11:49:28.618Z,26.62
2018-01-16T11:50:28.615Z,25.67
2018-01-16T11:51:28.590Z,28.23
2018-01-16T11:52:28.841Z,29.94
2018-01-16T11:53:28.596Z,31.83
2018-01-16T11:54:28.811Z,31.85
2018-01-16T11:55:28.537Z,31.85
2018-01-16T11:56:28.781Z,32.42
2018-01-16T11:57:28.519Z,35.93
2018-01-16T11:58:28.480Z,38.2
2018-01-16T11:59:28.466Z,39.43
2018-01-16T12:00:28.734Z,41.05
2018-01-16T12:01:28.434Z,41.69
2018-01-16T12:02:28.692Z,40.17
2018-01-16T12:03:28.405Z,40.08
2018-01-16T12:04:28.388Z,40.08
2018-01-16T12:05:28.645Z,39.22
2018-01-16T12:06:28.405Z,39.22
2018-01-16T12:07:28.615Z,38.56
2018-01-16T12:08:29.238Z,37.04
2018-01-16T12:09:28.581Z,35.43
2018-01-16T12:10:28.295Z,34.01
2018-01-16T12:11:28.278Z,33.35
2018-01-16T12:12:28.539Z,32.87
2018-01-16T12:13:28.249Z,31.55
2018-01-16T12:14:28.520Z,32.4
2018-01-16T12:15:28.220Z,31.93
2018-01-16T12:16:28.476Z,31.26
2018-01-16T12:17:28.190Z,29.56
2018-01-16T12:18:28.174Z,30.69
2018-01-16T12:19:28.435Z,30.88
2018-01-16T12:20:28.144Z,31.17
2018-01-16T12:21:28.400Z,30.98
2018-01-16T12:22:28.114Z,31.26
2018-01-16T12:23:28.108Z,30.88
2018-01-16T12:24:28.104Z,31.74
2018-01-16T12:25:28.067Z,31.64
2018-01-16T12:26:28.055Z,30.79
2018-01-16T12:27:28.060Z,31.07
2018-01-16T12:28:28.290Z,31.09
2018-01-16T12:29:28.356Z,31.75
2018-01-16T12:30:27.992Z,32.89
2018-01-16T12:31:27.976Z,34.11
2018-01-16T12:32:27.963Z,34.03
2018-01-16T12:33:27.948Z,34.01
2018-01-16T12:34:27.930Z,35.43
2018-01-16T12:35:27.917Z,35.43
2018-01-16T12:36:27.900Z,35.34
2018-01-16T12:37:27.888Z,35.91
2018-01-16T12:38:27.872Z,35.72
2018-01-16T12:39:27.853Z,34.86
2018-01-16T12:40:27.840Z,34.3
2018-01-16T12:41:28.098Z,33.73
2018-01-16T12:42:27.809Z,33.44
2018-01-16T12:43:27.801Z,33.35
2018-01-16T12:44:27.777Z,32.87
2018-01-16T12:45:27.764Z,32.78
2018-01-16T12:46:27.748Z,32.97
2018-01-16T12:47:28.005Z,33.35
2018-01-16T12:48:28.004Z,33.82
2018-01-16T12:49:27.969Z,33.16
2018-01-16T12:50:27.959Z,32.87
2018-01-16T12:51:27.693Z,32.97
2018-01-16T12:52:27.930Z,31.64
2018-01-16T12:53:27.662Z,31.26
2018-01-16T12:54:27.625Z,31.17
2018-01-16T12:55:27.887Z,31.17
2018-01-16T12:56:27.595Z,30.98
2018-01-16T12:57:27.592Z,32.02
2018-01-16T12:58:27.833Z,32.97
2018-01-16T12:59:27.815Z,32.97
2018-01-16T13:00:27.540Z,31.93
2018-01-16T13:01:27.787Z,31.74
2018-01-16T13:02:27.501Z,31.83